Salinas, California
Current Conditions -  °F | °C
As of 7:53 PM on Monday 20 Oct 2014 (Local Time) from KSNS Reporting Station
Clear Clear  
Wind Chill: 63°   Ceiling: Unl
Heat Index: 63°   Visibility: 10mi
Dew Point: 56°   Wind: 9mph
Humidity: 78%   Direction: 250°WSW
Pressure: 30.02"   Gusts: NA
Location:  36.67°N, 121.65°W
Report Text: KSNS 210253Z 25008KT 10SM CLR 17/13 A3002 RMK AO2 SLP174 T01720133 53014
Loading
Personal Weather Stations






























Interactive Weather Map New forecast layout! Learn more

10-Day Weather Forecast

Advertisements
Track Severe Weather on mobile